Vernon, Alabama
Current Conditions -  °F | °C
As of 8:28 PM on Saturday 22 Nov 2014 (Local Time) from KCBM Reporting Station
Unknown Precip Unknown Precip  
Wind Chill: 61°   Ceiling: 3800
Heat Index: 61°   Visibility: 10mi
Dew Point: 50°   Wind: 9mph
Humidity: 68%   Direction: 140°SE
Pressure: 30.07"   Gusts: NA
Location:  33.76°N, 88.11°W
Report Text: KCBM 230228Z AUTO 14008KT 10SM UP BKN038 OVC047 16/10 A3007 RMK AO2 UPE0226 $
Loading
Personal Weather Stations






























Interactive Weather Map New forecast layout! Learn more

10-Day Weather Forecast

Advertisements
Track Severe Weather on mobile